createdAt,value
2023-02-19T00:01:45.635Z,0.30
2023-02-19T00:04:14.434Z,0.20
2023-02-19T00:06:42.688Z,0.30
2023-02-19T00:09:15.046Z,0.30
2023-02-19T00:11:42.849Z,0.20
2023-02-19T00:14:11.180Z,0.20
2023-02-19T00:16:39.853Z,0.20
2023-02-19T00:19:09.313Z,0.20
2023-02-19T00:21:36.220Z,0.20
2023-02-19T00:24:05.425Z,0.20
2023-02-19T00:26:33.293Z,0.20
2023-02-19T00:29:01.307Z,0.10
2023-02-19T00:31:33.027Z,0.20
2023-02-19T00:34:03.909Z,0.10
2023-02-19T00:36:31.800Z,0.10
2023-02-19T00:38:58.931Z,0.10
2023-02-19T00:41:26.335Z,0.10
2023-02-19T00:43:56.254Z,0.20
2023-02-19T00:46:32.116Z,0.10
2023-02-19T00:48:59.683Z,0.10
2023-02-19T00:51:30.213Z,0.10
2023-02-19T00:53:57.629Z,0.10
2023-02-19T00:56:24.917Z,0.00
2023-02-19T00:58:52.925Z,0.10
2023-02-19T01:01:20.794Z,0.10
2023-02-19T01:03:49.543Z,0.10
2023-02-19T01:06:19.026Z,0.10
2023-02-19T01:08:46.530Z,0.10
2023-02-19T01:11:14.360Z,0.10
2023-02-19T01:13:42.472Z,0.00
2023-02-19T01:16:11.794Z,0.00
2023-02-19T01:18:39.069Z,0.00
2023-02-19T01:21:12.845Z,0.00
2023-02-19T01:23:40.373Z,0.00
2023-02-19T01:26:13.510Z,0.00
2023-02-19T01:28:40.725Z,-0.10
2023-02-19T01:31:11.297Z,-0.10
2023-02-19T01:33:38.647Z,-0.10
2023-02-19T01:36:07.260Z,-0.10
2023-02-19T01:38:34.333Z,-0.10
2023-02-19T01:41:03.910Z,-0.20
2023-02-19T01:43:33.488Z,-0.20
2023-02-19T01:46:01.229Z,-0.20
2023-02-19T01:48:33.210Z,-0.20
2023-02-19T01:51:09.775Z,-0.20
2023-02-19T01:53:41.771Z,-0.30
2023-02-19T01:56:09.370Z,-0.30
2023-02-19T01:58:37.895Z,-0.20
2023-02-19T02:01:07.766Z,-0.30
2023-02-19T02:03:38.214Z,-0.30
2023-02-19T02:06:29.746Z,-0.40
2023-02-19T02:09:16.359Z,-0.50
2023-02-19T02:11:47.997Z,-0.50
2023-02-19T02:14:17.487Z,-0.50
2023-02-19T02:17:11.364Z,-0.60
2023-02-19T02:20:03.491Z,-0.60
2023-02-19T02:22:37.268Z,-0.70
2023-02-19T02:25:20.962Z,-0.80
2023-02-19T02:27:53.797Z,-0.80
2023-02-19T02:31:04.051Z,-0.80
2023-02-19T02:33:44.905Z,-0.80
2023-02-19T02:36:25.400Z,-0.80
2023-02-19T02:38:54.328Z,-0.80
2023-02-19T02:41:21.527Z,-0.80
2023-02-19T02:43:48.486Z,-0.80
2023-02-19T02:46:23.132Z,-0.80
2023-02-19T02:48:54.224Z,-0.80
2023-02-19T02:51:29.274Z,-0.90
2023-02-19T02:54:33.672Z,-0.90
2023-02-19T02:57:02.140Z,-0.90
2023-02-19T02:59:34.217Z,-1.00
2023-02-19T03:02:12.238Z,-0.90
2023-02-19T03:05:06.789Z,-0.90
2023-02-19T03:07:42.163Z,-0.80
2023-02-19T03:10:13.494Z,-0.80
2023-02-19T03:13:00.964Z,-0.80
2023-02-19T03:15:52.761Z,-0.80
2023-02-19T03:18:40.298Z,-0.90
2023-02-19T03:21:08.801Z,-0.90
2023-02-19T03:23:56.100Z,-1.00
2023-02-19T03:26:24.129Z,-1.00
2023-02-19T03:29:11.587Z,-0.90
2023-02-19T03:31:41.248Z,-1.00
2023-02-19T03:34:15.458Z,-1.00
2023-02-19T03:36:47.829Z,-1.00
2023-02-19T03:39:19.833Z,-1.00
2023-02-19T03:41:56.036Z,-1.10
2023-02-19T03:44:42.178Z,-1.00
2023-02-19T03:47:23.752Z,-1.10
2023-02-19T03:50:15.532Z,-1.00
2023-02-19T03:53:03.859Z,-1.10
2023-02-19T03:55:46.445Z,-1.00
2023-02-19T03:58:24.638Z,-1.00
2023-02-19T04:01:00.375Z,-1.00
2023-02-19T04:03:29.848Z,-1.10
2023-02-19T04:06:02.823Z,-1.00
2023-02-19T04:08:31.758Z,-1.00
2023-02-19T04:11:00.178Z,-1.00
2023-02-19T04:13:31.340Z,-1.00
2023-02-19T04:16:03.842Z,-1.00
2023-02-19T04:18:35.483Z,-1.00
2023-02-19T04:21:03.824Z,-1.00
2023-02-19T04:23:34.079Z,-1.00
2023-02-19T04:26:02.786Z,-1.10
2023-02-19T04:28:30.139Z,-1.00
2023-02-19T04:30:57.086Z,-1.00
2023-02-19T04:33:24.040Z,-1.10
2023-02-19T04:35:50.942Z,-1.10
2023-02-19T04:38:17.887Z,-1.00
2023-02-19T04:40:44.776Z,-1.00
2023-02-19T04:43:11.656Z,-1.00
2023-02-19T04:45:39.273Z,-1.10
2023-02-19T04:48:06.495Z,-1.00
2023-02-19T04:50:33.469Z,-1.10
2023-02-19T04:53:00.522Z,-0.90
2023-02-19T04:55:27.445Z,-1.00
2023-02-19T04:57:54.535Z,-1.00
2023-02-19T05:00:21.645Z,-1.10
2023-02-19T05:02:48.581Z,-1.10
2023-02-19T05:05:15.675Z,-1.10
2023-02-19T05:07:42.584Z,-1.10
2023-02-19T05:10:09.536Z,-1.10
2023-02-19T05:12:36.455Z,-1.00
2023-02-19T05:15:03.631Z,-1.00
2023-02-19T05:17:34.462Z,-1.10
2023-02-19T05:20:01.336Z,-1.10
2023-02-19T05:22:29.898Z,-1.10
2023-02-19T05:24:56.903Z,-1.10
2023-02-19T05:27:23.820Z,-1.10
2023-02-19T05:29:50.740Z,-1.00
2023-02-19T05:32:17.674Z,-1.10
2023-02-19T05:34:44.690Z,-1.10
2023-02-19T05:37:11.635Z,-1.10
2023-02-19T05:39:38.573Z,-1.10
2023-02-19T05:42:05.457Z,-1.20
2023-02-19T05:44:32.510Z,-1.10
2023-02-19T05:46:59.442Z,-1.10
2023-02-19T05:49:27.001Z,-1.10
2023-02-19T05:51:53.986Z,-1.10
2023-02-19T05:54:20.956Z,-1.10
2023-02-19T05:56:47.826Z,-1.00
2023-02-19T05:59:18.787Z,-1.10
2023-02-19T06:01:46.350Z,-1.10
2023-02-19T06:04:14.403Z,-1.10
2023-02-19T06:06:41.823Z,-1.00
2023-02-19T06:09:09.284Z,-1.10
2023-02-19T06:11:36.596Z,-1.10
2023-02-19T06:14:03.924Z,-1.20
2023-02-19T06:16:32.298Z,-1.10
2023-02-19T06:18:59.495Z,-1.20
2023-02-19T06:21:26.385Z,-1.10
2023-02-19T06:23:54.314Z,-1.10
2023-02-19T06:26:23.986Z,-1.10
2023-02-19T06:28:52.947Z,-1.10
2023-02-19T06:31:21.338Z,-1.20
2023-02-19T06:33:50.835Z,-1.10
2023-02-19T06:36:19.719Z,-1.10
2023-02-19T06:38:46.783Z,-1.10
2023-02-19T06:41:14.596Z,-1.00
2023-02-19T06:43:41.842Z,-1.10
2023-02-19T06:46:10.724Z,-1.10
2023-02-19T06:48:40.167Z,-0.90
2023-02-19T06:51:07.258Z,-1.00
2023-02-19T06:53:34.178Z,-1.00
2023-02-19T06:56:06.888Z,-0.90
2023-02-19T06:58:34.553Z,-1.00
2023-02-19T07:01:01.738Z,-1.00
2023-02-19T07:03:28.841Z,-1.00
2023-02-19T07:05:55.778Z,-1.00
2023-02-19T07:08:22.755Z,-1.00
2023-02-19T07:10:57.334Z,-1.00
2023-02-19T07:13:27.907Z,-1.00
2023-02-19T07:16:03.442Z,-0.80
2023-02-19T07:18:30.447Z,-0.80
2023-02-19T07:21:07.519Z,-0.80
2023-02-19T07:23:34.957Z,-0.80
2023-02-19T07:26:02.102Z,-0.70
2023-02-19T07:28:29.176Z,-0.70
2023-02-19T07:31:01.092Z,-0.70
2023-02-19T07:33:28.007Z,-0.60
2023-02-19T07:35:55.003Z,-0.60
2023-02-19T07:38:24.375Z,-0.60
2023-02-19T07:40:59.588Z,-0.60
2023-02-19T07:43:28.773Z,-0.50
2023-02-19T07:45:56.332Z,-0.50
2023-02-19T07:48:23.583Z,-0.40
2023-02-19T07:50:58.855Z,-0.40
2023-02-19T07:53:27.166Z,-0.30
2023-02-19T07:55:54.636Z,-0.30
2023-02-19T07:58:23.104Z,-0.30
2023-02-19T08:00:50.049Z,-0.20
2023-02-19T08:03:17.167Z,-0.20
2023-02-19T08:05:45.136Z,-0.10
2023-02-19T08:08:14.183Z,-0.10
2023-02-19T08:11:00.554Z,0.00
2023-02-19T08:13:30.190Z,0.00
2023-02-19T08:16:18.268Z,-0.10
2023-02-19T08:18:48.070Z,0.00
2023-02-19T08:21:18.231Z,0.00
2023-02-19T08:23:46.496Z,0.10
2023-02-19T08:26:13.618Z,0.20
2023-02-19T08:28:40.613Z,0.20
2023-02-19T08:31:09.187Z,0.30
2023-02-19T08:33:36.884Z,0.30
2023-02-19T08:36:08.987Z,0.30
2023-02-19T08:38:36.932Z,0.40
2023-02-19T08:41:06.192Z,0.50
2023-02-19T08:43:33.659Z,0.40
2023-02-19T08:46:00.814Z,0.50
2023-02-19T08:48:27.865Z,0.60
2023-02-19T08:51:00.259Z,0.60
2023-02-19T08:53:27.353Z,0.60
2023-02-19T08:55:54.550Z,0.70
2023-02-19T08:58:21.888Z,0.70
2023-02-19T09:00:49.271Z,0.70
2023-02-19T09:03:16.182Z,0.80
2023-02-19T09:05:43.294Z,0.80
2023-02-19T09:08:11.331Z,0.90
2023-02-19T09:10:38.452Z,0.90
2023-02-19T09:13:05.702Z,1.00
2023-02-19T09:15:33.573Z,1.00
2023-02-19T09:18:00.924Z,0.90
2023-02-19T09:20:27.833Z,1.00
2023-02-19T09:22:59.087Z,1.00
2023-02-19T09:25:26.258Z,1.10
2023-02-19T09:27:56.682Z,1.10
2023-02-19T09:30:23.841Z,1.10
2023-02-19T09:32:50.972Z,1.20
2023-02-19T09:35:17.951Z,1.30
2023-02-19T09:37:44.904Z,1.30
2023-02-19T09:40:12.570Z,1.40
2023-02-19T09:42:43.097Z,1.30
2023-02-19T09:45:19.113Z,1.30
2023-02-19T09:47:46.609Z,1.40
2023-02-19T09:50:17.351Z,1.50
2023-02-19T09:53:04.059Z,1.50
2023-02-19T09:55:36.708Z,1.40
2023-02-19T09:58:21.853Z,1.50
2023-02-19T10:00:50.322Z,1.50
2023-02-19T10:03:40.930Z,1.50
2023-02-19T10:06:16.700Z,1.50
2023-02-19T10:08:47.448Z,1.60
2023-02-19T10:11:15.093Z,1.60
2023-02-19T10:13:49.530Z,1.60
2023-02-19T10:16:21.554Z,1.70
2023-02-19T10:18:48.761Z,1.70
2023-02-19T10:21:25.195Z,1.80
2023-02-19T10:24:00.218Z,1.80
2023-02-19T10:26:27.724Z,1.80
2023-02-19T10:28:55.697Z,1.80
2023-02-19T10:31:25.141Z,1.80
2023-02-19T10:33:56.784Z,1.80
2023-02-19T10:36:31.292Z,1.70
2023-02-19T10:39:01.030Z,1.80
2023-02-19T10:41:28.995Z,1.90
2023-02-19T10:44:15.670Z,1.90
2023-02-19T10:46:46.060Z,1.80
2023-02-19T10:49:40.585Z,1.90
2023-02-19T10:52:31.407Z,1.90
2023-02-19T10:55:16.903Z,2.00
2023-02-19T10:57:44.057Z,2.00
2023-02-19T11:00:16.722Z,2.00
2023-02-19T11:02:45.142Z,2.00
2023-02-19T11:05:16.261Z,2.00
2023-02-19T11:07:56.881Z,1.90
2023-02-19T11:10:27.467Z,2.00
2023-02-19T11:13:00.360Z,2.10
2023-02-19T11:15:37.447Z,2.20
2023-02-19T11:18:13.376Z,2.10
2023-02-19T11:20:57.775Z,2.20
2023-02-19T11:23:44.938Z,2.30
2023-02-19T11:26:21.918Z,2.30
2023-02-19T11:28:58.379Z,2.30
2023-02-19T11:31:33.227Z,2.30
2023-02-19T11:34:02.664Z,2.30
2023-02-19T11:36:30.985Z,2.40
2023-02-19T11:39:02.862Z,2.40
2023-02-19T11:41:45.308Z,2.40
2023-02-19T11:44:30.381Z,2.30
2023-02-19T11:47:30.929Z,2.40
2023-02-19T11:49:57.852Z,2.40
2023-02-19T11:52:34.305Z,2.30
2023-02-19T11:55:28.381Z,2.40
2023-02-19T11:58:18.298Z,2.40
2023-02-19T12:00:59.440Z,2.50
2023-02-19T12:04:03.234Z,2.60
2023-02-19T12:06:51.428Z,2.60
2023-02-19T12:09:24.369Z,2.60
2023-02-19T12:12:00.220Z,2.60
2023-02-19T12:15:17.144Z,2.70
2023-02-19T12:18:10.056Z,2.70
2023-02-19T12:20:46.362Z,2.70
2023-02-19T12:23:42.902Z,2.60
2023-02-19T12:26:41.907Z,2.70
2023-02-19T12:29:48.277Z,2.70
2023-02-19T12:32:24.404Z,2.60
2023-02-19T12:35:00.051Z,2.70
2023-02-19T12:37:55.234Z,2.80
2023-02-19T12:40:45.264Z,2.70
2023-02-19T12:43:25.079Z,2.80
2023-02-19T12:46:07.027Z,2.80
2023-02-19T12:48:59.174Z,2.80
2023-02-19T12:51:55.220Z,2.80
2023-02-19T12:54:38.842Z,2.80
2023-02-19T12:57:15.834Z,2.90
2023-02-19T12:59:56.831Z,3.00
2023-02-19T13:02:39.921Z,3.00
2023-02-19T13:05:38.061Z,3.00
2023-02-19T13:08:26.271Z,3.00
2023-02-19T13:11:03.522Z,2.90
2023-02-19T13:13:46.507Z,3.00
2023-02-19T13:16:18.724Z,3.00
2023-02-19T13:18:54.527Z,3.00
2023-02-19T13:21:42.744Z,3.10
2023-02-19T13:24:21.134Z,3.10
2023-02-19T13:27:00.377Z,3.10
2023-02-19T13:29:49.176Z,3.10
2023-02-19T13:32:32.162Z,3.10
2023-02-19T13:35:04.401Z,3.10
2023-02-19T13:37:35.278Z,3.10
2023-02-19T13:40:18.160Z,3.10
2023-02-19T13:42:55.985Z,3.10
2023-02-19T13:45:31.486Z,3.10
2023-02-19T13:47:58.343Z,3.10
2023-02-19T13:50:28.097Z,3.20
2023-02-19T13:52:56.807Z,3.10
2023-02-19T13:55:42.801Z,3.10
2023-02-19T13:58:56.648Z,3.10
2023-02-19T14:01:54.068Z,3.10
2023-02-19T14:04:42.030Z,3.10
2023-02-19T14:07:08.950Z,3.00
2023-02-19T14:09:41.279Z,3.10
2023-02-19T14:12:09.607Z,3.10
2023-02-19T14:14:40.429Z,3.10
2023-02-19T14:17:09.971Z,3.10
2023-02-19T14:19:42.618Z,3.00
2023-02-19T14:22:47.884Z,3.00
2023-02-19T14:25:39.240Z,3.10
2023-02-19T14:28:11.944Z,3.00
2023-02-19T14:31:18.114Z,3.00
2023-02-19T14:33:51.698Z,3.00
2023-02-19T14:36:37.749Z,2.90
2023-02-19T14:39:15.445Z,2.90
2023-02-19T14:41:49.859Z,2.90
2023-02-19T14:44:25.846Z,2.90
2023-02-19T14:47:00.755Z,2.90
2023-02-19T14:49:35.565Z,2.90
2023-02-19T14:52:08.007Z,2.90
2023-02-19T14:54:34.979Z,2.90
2023-02-19T14:57:04.032Z,2.80
2023-02-19T14:59:31.338Z,2.80
2023-02-19T15:02:02.698Z,2.80
2023-02-19T15:04:35.919Z,2.80
2023-02-19T15:07:08.608Z,2.70
2023-02-19T15:09:43.271Z,2.60
2023-02-19T15:12:20.168Z,2.60
2023-02-19T15:14:48.871Z,2.50
2023-02-19T15:17:26.274Z,2.50
2023-02-19T15:19:55.785Z,2.50
2023-02-19T15:22:28.286Z,2.40
2023-02-19T15:24:56.146Z,2.40
2023-02-19T15:27:25.259Z,2.40
2023-02-19T15:29:53.898Z,2.40
2023-02-19T15:32:28.678Z,2.40
2023-02-19T15:35:01.264Z,2.40
2023-02-19T15:37:31.182Z,2.30
2023-02-19T15:40:00.705Z,2.30
2023-02-19T15:42:33.457Z,2.30
2023-02-19T15:45:06.021Z,2.30
2023-02-19T15:47:35.958Z,2.30
2023-02-19T15:50:32.851Z,2.30
2023-02-19T15:53:12.636Z,2.20
2023-02-19T15:55:44.467Z,2.20
2023-02-19T15:58:36.154Z,2.20
2023-02-19T16:01:31.327Z,2.10
2023-02-19T16:03:58.919Z,2.10
2023-02-19T16:06:27.477Z,2.10
2023-02-19T16:09:03.975Z,2.00
2023-02-19T16:11:35.919Z,1.90
2023-02-19T16:14:28.874Z,1.90
2023-02-19T16:17:05.594Z,1.90
2023-02-19T16:20:01.575Z,1.90
2023-02-19T16:22:40.452Z,1.90
2023-02-19T16:25:08.222Z,1.70
2023-02-19T16:27:38.841Z,1.70
2023-02-19T16:30:32.144Z,1.70
2023-02-19T16:33:22.220Z,1.60
2023-02-19T16:35:52.520Z,1.40
2023-02-19T16:38:21.184Z,1.40
2023-02-19T16:40:51.691Z,1.30
2023-02-19T16:43:33.408Z,1.20
2023-02-19T16:46:01.715Z,1.20
2023-02-19T16:48:28.816Z,1.20
2023-02-19T16:50:56.079Z,1.20
2023-02-19T16:53:29.434Z,1.10
2023-02-19T16:55:56.453Z,1.00
2023-02-19T16:58:23.512Z,1.00
2023-02-19T17:00:50.696Z,1.00
2023-02-19T17:03:22.816Z,1.10
2023-02-19T17:05:50.830Z,1.10
2023-02-19T17:08:34.361Z,1.10
2023-02-19T17:11:03.846Z,1.00
2023-02-19T17:13:32.430Z,0.90
2023-02-19T17:16:00.134Z,1.00
2023-02-19T17:18:27.528Z,1.00
2023-02-19T17:21:02.305Z,0.90
2023-02-19T17:23:29.263Z,0.80
2023-02-19T17:25:56.485Z,0.80
2023-02-19T17:28:23.586Z,0.80
2023-02-19T17:30:50.553Z,0.90
2023-02-19T17:33:17.484Z,0.90
2023-02-19T17:35:45.062Z,0.90
2023-02-19T17:38:13.453Z,0.90
2023-02-19T17:40:40.722Z,0.80
2023-02-19T17:43:08.192Z,0.80
2023-02-19T17:45:35.468Z,0.70
2023-02-19T17:48:02.558Z,0.70
2023-02-19T17:50:31.918Z,0.70
2023-02-19T17:52:59.484Z,0.70
2023-02-19T17:55:26.585Z,0.70
2023-02-19T17:57:53.916Z,0.60
2023-02-19T18:00:25.885Z,0.50
2023-02-19T18:02:53.074Z,0.50
2023-02-19T18:05:20.865Z,0.50
2023-02-19T18:07:48.524Z,0.50
2023-02-19T18:10:20.651Z,0.40
2023-02-19T18:12:47.906Z,0.40
2023-02-19T18:15:24.191Z,0.40
2023-02-19T18:17:51.464Z,0.40
2023-02-19T18:20:24.384Z,0.40
2023-02-19T18:22:51.834Z,0.40
2023-02-19T18:25:21.016Z,0.40
2023-02-19T18:27:48.736Z,0.30
2023-02-19T18:30:19.101Z,0.20
2023-02-19T18:32:49.921Z,0.20
2023-02-19T18:35:18.912Z,0.10
2023-02-19T18:37:46.034Z,0.20
2023-02-19T18:40:13.330Z,0.10
2023-02-19T18:42:40.746Z,0.10
2023-02-19T18:45:07.951Z,0.10
2023-02-19T18:47:34.967Z,-0.10
2023-02-19T18:50:02.162Z,-0.10
2023-02-19T18:52:29.214Z,-0.20
2023-02-19T18:54:57.538Z,-0.30
2023-02-19T18:57:26.620Z,-0.20
2023-02-19T18:59:54.077Z,-0.30
2023-02-19T19:02:21.256Z,-0.20
2023-02-19T19:04:53.106Z,-0.40
2023-02-19T19:07:20.997Z,-0.30
2023-02-19T19:09:48.540Z,-0.50
2023-02-19T19:12:16.205Z,-0.60
2023-02-19T19:14:43.245Z,-0.60
2023-02-19T19:17:10.241Z,-0.60
2023-02-19T19:19:37.462Z,-0.70
2023-02-19T19:22:04.591Z,-0.70
2023-02-19T19:24:31.604Z,-0.70
2023-02-19T19:26:58.578Z,-0.80
2023-02-19T19:29:25.813Z,-0.80
2023-02-19T19:31:53.360Z,-0.90
2023-02-19T19:34:20.539Z,-0.90
2023-02-19T19:36:47.681Z,-0.90
2023-02-19T19:39:15.035Z,-0.90
2023-02-19T19:41:42.134Z,-1.00
2023-02-19T19:44:09.511Z,-1.00
2023-02-19T19:46:43.525Z,-1.10
2023-02-19T19:49:10.493Z,-1.10
2023-02-19T19:51:37.452Z,-1.10
2023-02-19T19:54:05.109Z,-1.10
2023-02-19T19:56:32.210Z,-1.10
2023-02-19T19:58:59.172Z,-1.10
2023-02-19T20:01:28.386Z,-1.10
2023-02-19T20:03:55.297Z,-1.10
2023-02-19T20:06:30.737Z,-1.10
2023-02-19T20:08:59.781Z,-1.30
2023-02-19T20:11:27.119Z,-1.30
2023-02-19T20:13:54.244Z,-1.40
2023-02-19T20:16:28.451Z,-1.40
2023-02-19T20:18:55.512Z,-1.40
2023-02-19T20:21:22.473Z,-1.40
2023-02-19T20:23:49.409Z,-1.50
2023-02-19T20:26:24.524Z,-1.40
2023-02-19T20:28:52.091Z,-1.40
2023-02-19T20:31:19.373Z,-1.40
2023-02-19T20:33:47.880Z,-1.40
2023-02-19T20:36:15.079Z,-1.50
2023-02-19T20:38:43.594Z,-1.40
2023-02-19T20:41:11.623Z,-1.40
2023-02-19T20:43:38.867Z,-1.40
2023-02-19T20:46:05.821Z,-1.50
2023-02-19T20:48:32.887Z,-1.50
2023-02-19T20:51:00.141Z,-1.50
2023-02-19T20:53:28.307Z,-1.50
2023-02-19T20:55:56.258Z,-1.60
2023-02-19T20:58:23.599Z,-1.60
2023-02-19T21:00:53.417Z,-1.50
2023-02-19T21:03:21.497Z,-1.60
2023-02-19T21:05:48.740Z,-1.50
2023-02-19T21:08:17.424Z,-1.50
2023-02-19T21:10:45.799Z,-1.50
2023-02-19T21:13:13.458Z,-1.50
2023-02-19T21:15:40.608Z,-1.60
2023-02-19T21:18:07.608Z,-1.60
2023-02-19T21:20:35.040Z,-1.60
2023-02-19T21:23:02.659Z,-1.50
2023-02-19T21:25:31.504Z,-1.50
2023-02-19T21:27:58.462Z,-1.70
2023-02-19T21:30:25.518Z,-1.70
2023-02-19T21:32:52.654Z,-1.60
2023-02-19T21:35:19.574Z,-1.70
2023-02-19T21:37:46.523Z,-1.60
2023-02-19T21:40:13.671Z,-1.60
2023-02-19T21:42:40.679Z,-1.60
2023-02-19T21:45:08.288Z,-1.70
2023-02-19T21:47:35.374Z,-1.70
2023-02-19T21:50:02.398Z,-1.60
2023-02-19T21:52:31.100Z,-1.70
2023-02-19T21:54:58.399Z,-1.80
2023-02-19T21:57:26.773Z,-1.80
2023-02-19T21:59:54.472Z,-1.70
2023-02-19T22:02:22.253Z,-1.70
2023-02-19T22:04:53.797Z,-1.70
2023-02-19T22:07:21.884Z,-1.70
2023-02-19T22:09:50.440Z,-1.80
2023-02-19T22:12:18.303Z,-1.80
2023-02-19T22:14:45.790Z,-1.80
2023-02-19T22:17:13.098Z,-1.80
2023-02-19T22:19:40.039Z,-1.80
2023-02-19T22:22:07.083Z,-1.90
2023-02-19T22:24:34.173Z,-2.00
2023-02-19T22:27:01.350Z,-2.00
2023-02-19T22:29:28.307Z,-2.00
2023-02-19T22:31:55.358Z,-1.90
2023-02-19T22:34:22.552Z,-2.00
2023-02-19T22:36:49.814Z,-2.00
2023-02-19T22:39:22.093Z,-2.10
2023-02-19T22:41:49.373Z,-2.10
2023-02-19T22:44:16.979Z,-2.10
2023-02-19T22:47:02.094Z,-2.00
2023-02-19T22:49:29.198Z,-2.20
2023-02-19T22:52:03.289Z,-2.20
2023-02-19T22:54:30.451Z,-2.10
2023-02-19T22:56:57.443Z,-2.20
2023-02-19T22:59:24.384Z,-2.20
2023-02-19T23:01:51.751Z,-2.10
2023-02-19T23:04:21.211Z,-2.20
2023-02-19T23:06:48.629Z,-2.20
2023-02-19T23:09:23.592Z,-2.20
2023-02-19T23:11:51.742Z,-2.10
2023-02-19T23:14:20.810Z,-2.00
2023-02-19T23:16:47.825Z,-2.00
2023-02-19T23:19:15.898Z,-2.00
2023-02-19T23:21:45.089Z,-2.00
2023-02-19T23:24:13.102Z,-1.90
2023-02-19T23:26:48.147Z,-2.00
2023-02-19T23:29:20.778Z,-2.00
2023-02-19T23:31:47.996Z,-2.10
2023-02-19T23:34:15.686Z,-2.10
2023-02-19T23:36:44.914Z,-2.20
2023-02-19T23:39:13.916Z,-2.10
2023-02-19T23:41:50.618Z,-2.20
2023-02-19T23:44:18.322Z,-2.30
2023-02-19T23:46:45.347Z,-2.20
2023-02-19T23:49:12.818Z,-2.10
2023-02-19T23:51:39.749Z,-2.10
2023-02-19T23:54:07.172Z,-2.20
2023-02-19T23:56:35.002Z,-2.20
2023-02-19T23:59:02.064Z,-2.30
